Time;durP1;ratioP1;P1;durP2;ratioP2;P2;SDS_P1;SDS_P2;PMS_P1;PMS_P2;Temp;Humidity;BMP_temperature;BMP_pressure;BME280_temperature;BME280_humidity;BME280_pressure;Samples;Min_cycle;Max_cycle;Signal;HPM_P1;HPM_P2
2021/01/03 00:00:38;;;;;;;8.50;5.15;;;1.00;99.90;;;;;;5006734;28;20046;-73
2021/01/03 00:03:05;;;;;;;11.27;5.25;;;1.00;99.90;;;;;;5008285;28;20103;-73
2021/01/03 00:05:32;;;;;;;11.43;5.38;;;1.00;99.90;;;;;;5008000;28;20042;-73
2021/01/03 00:07:59;;;;;;;12.70;5.90;;;1.00;99.90;;;;;;5007389;28;20107;-72
2021/01/03 00:10:26;;;;;;;11.80;5.30;;;1.00;99.90;;;;;;5005314;28;21591;-72
2021/01/03 00:12:53;;;;;;;10.32;5.57;;;0.90;99.90;;;;;;5008287;28;20090;-73
2021/01/03 00:15:22;;;;;;;9.85;5.63;;;1.00;99.90;;;;;;5008725;28;20077;-73
2021/01/03 00:17:50;;;;;;;9.40;5.70;;;0.90;99.90;;;;;;5006744;28;20160;-73
2021/01/03 00:20:27;;;;;;;11.38;6.43;;;0.90;99.90;;;;;;5006998;28;20131;-73
2021/01/03 00:22:54;;;;;;;10.63;5.53;;;0.90;99.90;;;;;;5007254;28;20080;-73
2021/01/03 00:25:23;;;;;;;12.52;6.40;;;0.90;99.90;;;;;;5007777;28;20052;-73
2021/01/03 00:27:52;;;;;;;9.45;5.30;;;0.90;99.90;;;;;;5001021;28;20125;-74
2021/01/03 00:30:21;;;;;;;10.95;6.20;;;0.90;99.90;;;;;;4999611;28;21883;-73
2021/01/03 00:32:48;;;;;;;12.75;6.72;;;0.90;99.90;;;;;;5009058;28;20152;-73
2021/01/03 00:35:20;;;;;;;12.65;6.28;;;0.90;99.90;;;;;;4986124;28;20046;-74
2021/01/03 00:37:47;;;;;;;12.23;6.57;;;0.90;99.90;;;;;;5006374;28;20124;-74
2021/01/03 00:40:17;;;;;;;14.38;6.55;;;0.90;99.90;;;;;;5000672;28;20112;-74
2021/01/03 00:42:43;;;;;;;10.57;6.43;;;0.90;99.90;;;;;;5003029;28;20128;-74
2021/01/03 00:45:10;;;;;;;13.73;6.53;;;0.80;99.90;;;;;;5010141;28;20165;-74
2021/01/03 00:47:37;;;;;;;10.18;5.57;;;0.80;99.90;;;;;;5010642;28;20042;-74
2021/01/03 00:50:09;;;;;;;14.50;6.97;;;0.80;99.90;;;;;;5006131;28;20483;-74
2021/01/03 00:52:35;;;;;;;14.68;7.30;;;0.80;99.90;;;;;;5007293;28;20436;-73
2021/01/03 00:55:05;;;;;;;10.90;6.03;;;0.70;99.90;;;;;;4993037;28;20491;-74
2021/01/03 00:57:31;;;;;;;14.70;7.70;;;0.80;99.90;;;;;;5001611;28;20082;-74
2021/01/03 00:59:57;;;;;;;13.95;7.30;;;0.80;99.90;;;;;;5012484;28;20376;-74
2021/01/03 01:02:24;;;;;;;13.43;6.55;;;0.80;99.90;;;;;;5010626;28;21522;-74
2021/01/03 01:04:51;;;;;;;14.10;7.05;;;0.80;99.90;;;;;;5011016;28;20104;-74
2021/01/03 01:07:18;;;;;;;13.85;7.40;;;0.70;99.90;;;;;;5007646;28;20073;-74
2021/01/03 01:09:44;;;;;;;12.93;7.55;;;0.80;99.90;;;;;;5010622;28;20054;-74
2021/01/03 01:12:10;;;;;;;14.48;7.60;;;0.80;99.90;;;;;;5009921;28;20131;-74
2021/01/03 01:14:37;;;;;;;13.68;8.00;;;0.80;99.90;;;;;;5009954;28;20198;-74
2021/01/03 01:17:05;;;;;;;15.13;8.02;;;0.70;99.90;;;;;;5006393;28;20535;-74
2021/01/03 01:19:32;;;;;;;15.68;9.23;;;0.70;99.90;;;;;;5011058;28;20470;-74
2021/01/03 01:21:58;;;;;;;15.25;7.82;;;0.60;99.90;;;;;;4996459;28;20054;-74
2021/01/03 01:24:24;;;;;;;13.85;7.88;;;0.70;99.90;;;;;;5004032;28;20148;-74
2021/01/03 01:26:51;;;;;;;15.07;7.13;;;0.70;99.90;;;;;;5014251;28;20037;-74
2021/01/03 01:29:17;;;;;;;15.15;8.57;;;0.70;99.90;;;;;;5008708;28;20567;-74
2021/01/03 01:31:43;;;;;;;15.80;8.05;;;0.70;99.90;;;;;;4997654;28;20104;-74
2021/01/03 01:34:10;;;;;;;17.20;8.45;;;0.80;99.90;;;;;;4999807;28;20452;-74
2021/01/03 01:36:36;;;;;;;15.07;8.82;;;0.70;99.90;;;;;;5005383;28;20569;-74
2021/01/03 01:39:04;;;;;;;16.83;8.82;;;0.70;99.90;;;;;;5009420;28;20127;-74
2021/01/03 01:41:30;;;;;;;15.27;8.38;;;0.60;99.90;;;;;;4998020;28;20201;-74
2021/01/03 01:43:56;;;;;;;17.02;9.13;;;0.70;99.90;;;;;;5001114;28;20077;-74
2021/01/03 01:46:42;;;;;;;17.35;8.35;;;0.70;99.90;;;;;;5005357;28;20070;-74
2021/01/03 01:49:12;;;;;;;17.33;9.13;;;0.70;99.90;;;;;;5008328;28;20161;-74
2021/01/03 01:51:42;;;;;;;17.67;8.88;;;0.70;99.90;;;;;;5004504;28;20126;-74
2021/01/03 01:54:16;;;;;;;16.75;8.25;;;0.70;99.90;;;;;;4993473;28;20061;-74
2021/01/03 01:57:02;;;;;;;;;;;0.70;99.90;;;;;;4958898;28;20101;-74
2021/01/03 02:00:02;;;;;;;18.17;9.10;;;0.70;99.90;;;;;;5010318;28;19925;-75
2021/01/03 02:02:57;;;;;;;15.82;8.13;;;0.70;99.90;;;;;;4988310;28;20053;-74
2021/01/03 02:05:32;;;;;;;17.02;8.35;;;0.70;99.90;;;;;;4999423;28;20078;-74
2021/01/03 02:08:26;;;;;;;16.95;9.25;;;0.70;99.90;;;;;;5007289;28;20532;-74
2021/01/03 02:10:52;;;;;;;17.90;9.43;;;0.60;99.90;;;;;;5007380;28;20093;-75
2021/01/03 02:13:24;;;;;;;17.05;9.38;;;0.60;99.90;;;;;;5003264;28;20112;-74
2021/01/03 02:15:52;;;;;;;17.27;9.50;;;0.70;99.90;;;;;;4993270;28;20416;-74
2021/01/03 02:18:19;;;;;;;15.70;9.15;;;0.70;99.90;;;;;;4998066;28;20627;-75
2021/01/03 02:21:07;;;;;;;17.08;9.00;;;0.80;99.90;;;;;;4999516;28;20088;-74
2021/01/03 02:23:39;;;;;;;15.35;8.63;;;0.60;99.90;;;;;;5000325;28;20141;-73
2021/01/03 02:26:07;;;;;;;16.90;9.13;;;0.70;99.90;;;;;;4989723;28;20567;-73
2021/01/03 02:28:38;;;;;;;18.00;9.57;;;0.70;99.90;;;;;;4988061;28;20128;-74
2021/01/03 02:31:06;;;;;;;18.55;9.85;;;0.70;99.90;;;;;;5023215;28;20479;-74
2021/01/03 02:33:43;;;;;;;17.67;10.18;;;0.70;99.90;;;;;;5008562;28;21447;-74
2021/01/03 02:36:25;;;;;;;16.67;8.93;;;0.70;99.90;;;;;;5009367;28;20053;-74
2021/01/03 02:39:23;;;;;;;22.33;9.75;;;0.80;99.90;;;;;;5010169;28;20046;-74
2021/01/03 02:41:57;;;;;;;20.35;10.82;;;0.70;99.90;;;;;;5009175;28;20073;-74
2021/01/03 02:44:24;;;;;;;18.15;9.48;;;0.60;99.90;;;;;;5007811;28;20057;-74
2021/01/03 02:46:54;;;;;;;22.73;10.30;;;0.70;99.90;;;;;;5007618;28;20181;-74
2021/01/03 02:49:22;;;;;;;19.33;9.65;;;0.70;99.90;;;;;;5008924;28;20042;-74
2021/01/03 02:51:49;;;;;;;15.60;8.20;;;0.80;99.90;;;;;;5009909;28;20119;-74
2021/01/03 02:54:16;;;;;;;18.38;9.77;;;0.80;99.90;;;;;;5009844;28;20376;-74
2021/01/03 02:56:42;;;;;;;17.70;9.95;;;0.70;99.90;;;;;;5007510;28;20129;-74
2021/01/03 02:59:08;;;;;;;20.67;10.52;;;0.70;99.90;;;;;;5008933;28;20125;-74
2021/01/03 03:01:35;;;;;;;16.60;9.27;;;0.60;99.90;;;;;;5008353;28;20110;-74
2021/01/03 03:04:01;;;;;;;19.73;9.57;;;0.70;99.90;;;;;;5009210;28;20200;-73
2021/01/03 03:06:28;;;;;;;14.45;9.13;;;0.70;99.90;;;;;;5009012;28;20152;-73
2021/01/03 03:08:54;;;;;;;17.17;9.57;;;0.70;99.90;;;;;;5008922;28;20486;-74
2021/01/03 03:11:21;;;;;;;16.27;9.30;;;0.80;99.90;;;;;;5024448;28;20137;-74
2021/01/03 03:13:47;;;;;;;16.55;9.27;;;0.70;99.90;;;;;;5007907;28;20050;-73
2021/01/03 03:16:19;;;;;;;20.38;9.88;;;0.70;99.90;;;;;;5009589;28;20160;-74
2021/01/03 03:18:46;;;;;;;18.87;9.70;;;0.60;99.90;;;;;;4998402;28;20133;-73
2021/01/03 03:21:20;;;;;;;14.45;8.43;;;0.70;99.90;;;;;;4991385;28;20389;-73
2021/01/03 03:23:47;;;;;;;18.10;9.40;;;0.80;99.90;;;;;;5008937;28;20050;-74
2021/01/03 03:26:13;;;;;;;18.75;9.73;;;0.70;99.90;;;;;;5008651;28;20069;-74
2021/01/03 03:28:40;;;;;;;18.92;10.45;;;0.70;99.90;;;;;;5007411;28;20041;-73
2021/01/03 03:31:06;;;;;;;16.23;9.68;;;0.70;99.90;;;;;;5007498;28;20042;-74
2021/01/03 03:33:33;;;;;;;17.80;9.40;;;0.70;99.90;;;;;;5009367;28;20144;-75
2021/01/03 03:35:59;;;;;;;17.63;9.63;;;0.70;99.90;;;;;;5008685;28;20050;-74
2021/01/03 03:38:26;;;;;;;16.90;9.13;;;0.60;99.90;;;;;;5023548;28;20053;-74
2021/01/03 03:40:52;;;;;;;18.20;10.00;;;0.70;99.90;;;;;;5002316;28;20380;-74
2021/01/03 03:43:18;;;;;;;15.02;8.68;;;0.60;99.90;;;;;;5009080;28;20165;-75
2021/01/03 03:45:45;;;;;;;18.10;9.07;;;0.60;99.90;;;;;;5008100;28;20117;-74
2021/01/03 03:48:11;;;;;;;19.13;9.82;;;0.60;99.90;;;;;;5007665;28;20122;-75
2021/01/03 03:50:37;;;;;;;15.82;9.25;;;0.60;99.90;;;;;;5008103;28;20038;-73
2021/01/03 03:53:04;;;;;;;17.45;9.57;;;0.60;99.90;;;;;;5003024;28;20415;-75
2021/01/03 03:55:31;;;;;;;17.98;9.93;;;0.60;99.90;;;;;;4999436;28;20486;-74
2021/01/03 03:57:57;;;;;;;16.38;9.48;;;0.60;99.90;;;;;;4989522;28;20112;-74
2021/01/03 04:00:24;;;;;;;19.48;10.02;;;0.60;99.90;;;;;;5008257;28;20124;-75
2021/01/03 04:02:51;;;;;;;16.75;8.50;;;0.60;99.90;;;;;;5007247;28;20491;-74
2021/01/03 04:05:21;;;;;;;16.73;9.35;;;0.60;99.90;;;;;;5009235;28;20042;-74
2021/01/03 04:07:49;;;;;;;15.73;9.27;;;0.60;99.90;;;;;;5007618;28;20053;-75
2021/01/03 04:10:17;;;;;;;16.35;9.40;;;0.60;99.90;;;;;;5008094;28;20077;-75
2021/01/03 04:12:44;;;;;;;17.10;9.38;;;0.60;99.90;;;;;;5002271;28;20448;-73
2021/01/03 04:15:13;;;;;;;15.57;9.38;;;0.60;99.90;;;;;;5008010;28;20124;-73
2021/01/03 04:17:40;;;;;;;18.20;9.48;;;0.60;99.90;;;;;;5008584;28;20454;-75
2021/01/03 04:20:12;;;;;;;16.60;8.85;;;0.70;99.90;;;;;;5006160;28;20054;-75
2021/01/03 04:22:38;;;;;;;13.25;8.00;;;0.70;99.90;;;;;;5012851;28;20424;-74
2021/01/03 04:25:05;;;;;;;16.23;8.73;;;0.70;99.90;;;;;;4994733;28;20046;-74
2021/01/03 04:27:32;;;;;;;18.17;9.63;;;0.70;99.90;;;;;;5010973;28;20057;-75
2021/01/03 04:29:58;;;;;;;16.00;8.20;;;0.60;99.90;;;;;;5011868;28;20046;-72
2021/01/03 04:32:26;;;;;;;13.40;7.88;;;0.70;99.90;;;;;;5010901;28;20149;-74
2021/01/03 04:34:57;;;;;;;14.10;8.25;;;0.60;99.90;;;;;;5011725;28;20057;-74
2021/01/03 04:37:23;;;;;;;17.33;8.90;;;0.60;99.90;;;;;;5011945;28;20519;-74
2021/01/03 04:39:49;;;;;;;14.73;8.98;;;0.60;99.90;;;;;;5011815;28;20568;-74
2021/01/03 04:42:19;;;;;;;13.43;8.20;;;0.50;99.90;;;;;;5011037;28;20124;-75
2021/01/03 04:44:49;;;;;;;14.45;8.68;;;0.60;99.90;;;;;;5010550;28;20129;-75
2021/01/03 04:47:34;;;;;;;14.60;9.20;;;0.60;99.90;;;;;;5012608;28;20092;-75
2021/01/03 04:50:13;;;;;;;15.48;8.07;;;0.60;99.90;;;;;;5011878;28;20078;-75
2021/01/03 04:53:18;;;;;;;14.43;8.43;;;0.60;99.90;;;;;;5008956;28;20137;-73
2021/01/03 04:56:01;;;;;;;15.10;8.82;;;0.60;99.90;;;;;;5011726;28;20081;-75
2021/01/03 04:59:01;;;;;;;15.35;7.70;;;0.70;99.90;;;;;;5005265;28;20099;-75
2021/01/03 05:01:42;;;;;;;12.95;7.68;;;0.60;99.90;;;;;;5004738;28;20053;-75
2021/01/03 05:04:45;;;;;;;15.77;9.30;;;0.70;99.90;;;;;;5012358;28;20037;-75
2021/01/03 05:07:27;;;;;;;14.05;8.18;;;0.70;99.90;;;;;;5006285;28;20057;-74
2021/01/03 05:10:10;;;;;;;13.98;8.13;;;0.70;99.90;;;;;;5006894;28;20080;-74
2021/01/03 05:12:50;;;;;;;17.10;9.05;;;0.70;99.90;;;;;;5009915;28;20069;-75
2021/01/03 05:15:29;;;;;;;15.45;8.75;;;0.60;99.90;;;;;;5011956;28;20100;-75
2021/01/03 05:17:56;;;;;;;13.43;7.65;;;0.70;99.90;;;;;;5010715;28;20546;-75
2021/01/03 05:20:22;;;;;;;12.98;8.70;;;0.70;99.90;;;;;;5010913;28;20477;-75
2021/01/03 05:22:49;;;;;;;14.93;8.32;;;0.60;99.90;;;;;;5011416;28;20225;-74
2021/01/03 05:25:18;;;;;;;18.05;9.45;;;0.60;99.90;;;;;;5003199;28;20100;-75
2021/01/03 05:28:03;;;;;;;16.00;8.98;;;0.60;99.90;;;;;;5010483;28;20081;-75
2021/01/03 05:30:30;;;;;;;15.45;8.73;;;0.60;99.90;;;;;;5009136;28;20152;-75
2021/01/03 05:33:12;;;;;;;15.02;9.63;;;0.70;99.90;;;;;;5011164;28;20073;-75
2021/01/03 05:35:41;;;;;;;14.68;8.45;;;0.60;99.90;;;;;;5008060;28;20088;-75
2021/01/03 05:38:11;;;;;;;15.23;8.90;;;0.60;99.90;;;;;;4992880;28;20404;-75
2021/01/03 05:40:42;;;;;;;16.25;9.57;;;0.60;99.90;;;;;;5009554;28;20088;-75
2021/01/03 05:43:24;;;;;;;17.05;9.02;;;0.60;99.90;;;;;;5010278;28;20053;-75
2021/01/03 05:46:24;;;;;;;17.73;10.02;;;0.60;99.90;;;;;;4992825;28;20123;-75
2021/01/03 05:48:58;;;;;;;14.55;9.38;;;0.60;99.90;;;;;;5008536;28;20137;-75
2021/01/03 05:51:32;;;;;;;18.70;10.35;;;0.60;99.90;;;;;;5010443;28;20169;-75
2021/01/03 05:54:06;;;;;;;17.50;9.48;;;0.60;99.90;;;;;;5011455;28;20046;-75
2021/01/03 05:56:35;;;;;;;14.35;7.75;;;0.70;99.90;;;;;;5023306;28;20081;-75
2021/01/03 05:59:02;;;;;;;15.13;8.77;;;0.70;99.90;;;;;;5009160;28;20104;-75
2021/01/03 06:01:35;;;;;;;16.00;9.35;;;0.80;99.90;;;;;;5024309;28;20092;-75
2021/01/03 06:04:12;;;;;;;16.00;8.50;;;0.70;99.90;;;;;;5011182;28;20123;-75
2021/01/03 06:06:50;;;;;;;16.02;9.50;;;0.70;99.90;;;;;;5009650;28;20514;-75
2021/01/03 06:09:38;;;;;;;16.20;10.15;;;0.70;99.90;;;;;;5011120;28;20120;-75
2021/01/03 06:12:16;;;;;;;16.58;9.23;;;0.70;99.90;;;;;;5009271;28;20072;-75
2021/01/03 06:14:45;;;;;;;16.20;10.13;;;0.70;99.90;;;;;;5009876;28;20515;-75
2021/01/03 06:17:14;;;;;;;16.00;8.88;;;0.70;99.90;;;;;;5010468;28;20392;-75
2021/01/03 06:19:49;;;;;;;18.02;11.40;;;0.80;99.90;;;;;;5010390;28;20467;-75
2021/01/03 06:22:39;;;;;;;16.75;9.82;;;0.70;99.90;;;;;;5010083;28;20128;-75
2021/01/03 06:25:35;;;;;;;15.63;9.48;;;0.70;99.90;;;;;;5014300;28;20103;-75
2021/01/03 06:28:11;;;;;;;14.85;9.63;;;0.80;99.90;;;;;;5005858;28;20054;-75
2021/01/03 06:30:42;;;;;;;20.67;10.93;;;0.80;99.90;;;;;;5009747;28;20050;-75
2021/01/03 06:33:21;;;;;;;17.30;10.82;;;0.80;99.90;;;;;;5010404;28;20088;-75
2021/01/03 06:35:48;;;;;;;15.80;10.00;;;0.80;99.90;;;;;;5000156;28;20046;-75
2021/01/03 06:38:30;;;;;;;18.60;10.95;;;0.80;99.90;;;;;;5009117;28;20484;-75
2021/01/03 06:41:22;;;;;;;17.45;10.82;;;0.70;99.90;;;;;;5003716;28;20428;-75
2021/01/03 06:44:18;;;;;;;17.88;11.07;;;0.80;99.90;;;;;;4993379;28;20128;-75
2021/01/03 06:46:50;;;;;;;16.70;10.75;;;0.70;99.90;;;;;;5008341;28;20404;-75
2021/01/03 06:49:30;;;;;;;17.83;10.77;;;0.70;99.90;;;;;;5008455;28;20042;-75
2021/01/03 06:52:27;;;;;;;17.48;11.15;;;0.70;99.90;;;;;;5009464;28;20092;-73
2021/01/03 06:55:24;;;;;;;18.45;11.02;;;0.70;99.90;;;;;;4999663;28;20054;-74
2021/01/03 06:58:19;;;;;;;18.63;11.27;;;0.60;99.90;;;;;;5007387;28;20046;-74
2021/01/03 07:00:55;;;;;;;18.60;11.25;;;0.60;99.90;;;;;;5010325;28;20053;-75
2021/01/03 07:03:28;;;;;;;19.65;11.23;;;0.70;99.90;;;;;;5009116;28;20124;-75
2021/01/03 07:06:00;;;;;;;17.52;10.98;;;0.70;99.90;;;;;;5009176;28;20200;-74
2021/01/03 07:08:30;;;;;;;17.63;11.50;;;0.70;99.90;;;;;;5009537;28;20522;-74
2021/01/03 07:10:57;;;;;;;18.38;10.98;;;0.70;99.90;;;;;;5007720;28;20057;-74
2021/01/03 07:13:29;;;;;;;17.15;10.27;;;0.80;99.90;;;;;;5009563;28;20534;-74
2021/01/03 07:15:57;;;;;;;16.23;10.77;;;0.80;99.90;;;;;;5008397;28;20073;-74
2021/01/03 07:18:43;;;;;;;16.80;10.10;;;0.90;99.90;;;;;;5008555;28;20053;-75
2021/01/03 07:21:20;;;;;;;19.10;10.93;;;0.90;99.90;;;;;;5004626;28;20084;-74
2021/01/03 07:24:10;;;;;;;18.13;10.18;;;0.90;99.90;;;;;;5009489;28;20092;-74
2021/01/03 07:26:37;;;;;;;20.80;11.68;;;0.90;99.90;;;;;;4989841;28;20342;-75
2021/01/03 07:29:16;;;;;;;20.63;11.20;;;0.90;99.90;;;;;;5007190;28;20049;-75
2021/01/03 07:31:42;;;;;;;16.77;10.27;;;0.90;99.90;;;;;;5007378;28;20132;-75
2021/01/03 07:34:11;;;;;;;15.43;9.85;;;0.80;99.90;;;;;;5007068;28;20460;-74
2021/01/03 07:36:49;;;;;;;17.63;10.18;;;0.90;99.90;;;;;;5008052;28;20128;-74
2021/01/03 07:39:28;;;;;;;21.27;11.90;;;0.80;99.90;;;;;;4972586;28;20147;-74
2021/01/03 07:42:12;;;;;;;16.45;10.32;;;0.90;99.90;;;;;;4984821;28;20049;-74
2021/01/03 07:44:39;;;;;;;17.35;10.38;;;0.80;99.90;;;;;;5008696;28;20149;-75
2021/01/03 07:47:05;;;;;;;16.90;10.88;;;0.80;99.90;;;;;;5008257;28;20141;-75
2021/01/03 07:49:34;;;;;;;21.15;10.43;;;0.80;99.90;;;;;;5007703;28;20204;-74
2021/01/03 07:52:30;;;;;;;15.23;9.60;;;0.90;99.90;;;;;;5008167;28;20077;-75
2021/01/03 07:54:56;;;;;;;17.35;10.02;;;1.00;99.90;;;;;;5008722;28;20063;-74
2021/01/03 07:57:27;;;;;;;16.15;10.48;;;1.00;99.90;;;;;;5007253;28;20133;-74
2021/01/03 07:59:59;;;;;;;17.40;10.60;;;1.00;99.90;;;;;;5008660;28;20050;-75
2021/01/03 08:02:29;;;;;;;17.38;10.15;;;1.00;99.90;;;;;;5007974;28;20050;-75
2021/01/03 08:04:58;;;;;;;18.65;11.35;;;0.90;99.90;;;;;;5009206;28;20148;-75
2021/01/03 08:07:25;;;;;;;17.60;11.07;;;0.90;99.90;;;;;;5007946;28;20115;-74
2021/01/03 08:09:53;;;;;;;16.50;9.93;;;0.90;99.90;;;;;;5008405;28;20399;-74
2021/01/03 08:12:53;;;;;;;17.13;10.15;;;1.00;99.90;;;;;;5008545;28;20084;-75
2021/01/03 08:15:28;;;;;;;17.20;10.13;;;1.10;99.90;;;;;;5007298;28;20050;-75
2021/01/03 08:18:19;;;;;;;14.43;8.95;;;1.10;99.90;;;;;;5006756;28;20046;-74
2021/01/03 08:20:47;;;;;;;15.88;9.50;;;1.10;99.90;;;;;;4983710;28;20053;-75
2021/01/03 08:23:27;;;;;;;15.35;9.55;;;1.10;99.90;;;;;;5008955;28;20084;-74
2021/01/03 08:26:09;;;;;;;14.70;9.40;;;1.20;99.90;;;;;;5008888;28;20108;-74
2021/01/03 08:29:08;;;;;;;16.02;10.45;;;1.20;99.90;;;;;;5007306;28;20080;-75
2021/01/03 08:31:47;;;;;;;18.40;10.75;;;1.10;99.90;;;;;;5006954;28;20159;-74
2021/01/03 08:34:18;;;;;;;15.43;9.40;;;1.10;99.90;;;;;;5008066;28;20483;-74
2021/01/03 08:36:45;;;;;;;15.35;9.52;;;1.10;99.90;;;;;;5001972;28;20133;-73
2021/01/03 08:39:14;;;;;;;16.05;10.02;;;1.10;99.90;;;;;;5008612;28;20505;-73
2021/01/03 08:42:05;;;;;;;15.38;9.98;;;1.20;99.90;;;;;;5007687;28;20077;-74
2021/01/03 08:44:40;;;;;;;15.85;10.73;;;1.20;99.90;;;;;;5008286;28;20510;-74
2021/01/03 08:47:12;;;;;;;15.23;9.60;;;1.20;99.90;;;;;;5007163;28;20066;-74
2021/01/03 08:49:41;;;;;;;16.30;9.45;;;1.20;99.90;;;;;;5007497;28;20068;-74
2021/01/03 08:52:23;;;;;;;16.63;10.15;;;1.20;99.90;;;;;;5006025;28;20482;-75
2021/01/03 08:55:02;;;;;;;14.63;10.18;;;1.20;99.90;;;;;;4998091;28;20423;-74
2021/01/03 08:57:30;;;;;;;17.30;10.55;;;1.20;99.90;;;;;;5004406;28;20080;-74
2021/01/03 08:59:57;;;;;;;16.13;9.63;;;1.20;99.90;;;;;;5008277;28;20388;-70
2021/01/03 09:02:28;;;;;;;15.30;9.70;;;1.20;99.90;;;;;;5006728;28;20069;-70
2021/01/03 09:05:02;;;;;;;16.13;9.25;;;1.20;99.90;;;;;;5007924;28;20191;-70
2021/01/03 09:07:34;;;;;;;15.20;9.30;;;1.20;99.90;;;;;;5011601;28;20137;-70
2021/01/03 09:10:05;;;;;;;13.93;8.68;;;1.20;99.90;;;;;;5011609;28;20507;-71
2021/01/03 09:12:35;;;;;;;13.90;8.38;;;1.20;99.90;;;;;;5011929;28;20411;-70
2021/01/03 09:15:04;;;;;;;14.52;8.90;;;1.30;99.90;;;;;;5011011;28;20050;-70
2021/01/03 09:17:37;;;;;;;17.20;9.43;;;1.30;99.90;;;;;;5010866;28;20152;-70
2021/01/03 09:20:27;;;;;;;15.35;9.25;;;1.30;99.90;;;;;;5010173;28;20148;-70
2021/01/03 09:23:03;;;;;;;15.32;9.30;;;1.30;99.90;;;;;;5001005;28;20042;-70
2021/01/03 09:25:33;;;;;;;14.20;8.88;;;1.20;99.90;;;;;;5010728;28;20054;-71
2021/01/03 09:28:31;;;;;;;15.38;9.73;;;1.30;99.90;;;;;;5012021;28;20115;-71
2021/01/03 09:31:21;;;;;;;15.23;9.45;;;1.30;99.90;;;;;;4997193;28;20441;-70
2021/01/03 09:33:53;;;;;;;15.60;9.13;;;1.30;99.90;;;;;;5009519;28;20137;-70
2021/01/03 09:36:39;;;;;;;16.47;10.23;;;1.30;99.90;;;;;;5011493;28;20065;-70
2021/01/03 09:39:28;;;;;;;16.60;9.65;;;1.20;99.90;;;;;;5009722;28;20050;-70
2021/01/03 09:42:00;;;;;;;15.63;9.48;;;1.20;99.90;;;;;;5010740;28;20077;-70
2021/01/03 09:44:35;;;;;;;14.05;8.50;;;1.30;99.90;;;;;;5011763;28;20054;-71
2021/01/03 09:47:08;;;;;;;18.38;11.63;;;1.40;99.90;;;;;;5008704;28;20078;-70
2021/01/03 09:49:48;;;;;;;16.20;9.30;;;1.40;99.90;;;;;;4994304;28;20073;-70
2021/01/03 09:52:33;;;;;;;13.45;8.70;;;1.40;99.90;;;;;;5009352;28;20045;-71
2021/01/03 09:55:03;;;;;;;14.68;9.32;;;1.50;99.90;;;;;;5010171;28;20046;-70
2021/01/03 09:57:38;;;;;;;14.45;8.45;;;1.60;99.90;;;;;;5011673;28;20419;-70
2021/01/03 10:00:12;;;;;;;15.00;9.77;;;1.70;99.90;;;;;;5009046;28;20077;-70
2021/01/03 10:02:38;;;;;;;16.58;9.57;;;1.80;99.90;;;;;;5009034;28;20046;-70
2021/01/03 10:05:38;;;;;;;13.85;9.13;;;1.80;99.90;;;;;;5010944;28;20128;-70
2021/01/03 10:08:08;;;;;;;14.13;8.73;;;1.70;99.90;;;;;;4991641;28;20196;-71
2021/01/03 10:10:49;;;;;;;13.35;8.60;;;1.80;99.90;;;;;;5015927;28;20145;-70
2021/01/03 10:13:17;;;;;;;14.65;9.25;;;1.70;99.90;;;;;;4999724;28;20050;-70
2021/01/03 10:15:49;;;;;;;17.48;9.43;;;1.80;99.90;;;;;;5009780;28;20408;-71
2021/01/03 10:18:35;;;;;;;16.77;10.90;;;1.70;99.90;;;;;;5009625;28;20411;-70
2021/01/03 10:21:40;;;;;;;18.65;11.50;;;1.70;99.90;;;;;;5010066;28;20128;-70
2021/01/03 10:24:21;;;;;;;19.42;10.93;;;1.70;99.90;;;;;;4947934;28;20113;-70
2021/01/03 10:27:07;;;;;;;18.00;10.65;;;1.70;99.90;;;;;;4961141;28;20178;-70
2021/01/03 10:29:34;;;;;;;15.65;10.60;;;1.80;99.90;;;;;;4972294;28;20050;-70
2021/01/03 10:32:01;;;;;;;16.67;10.73;;;1.90;99.90;;;;;;5007950;28;20041;-70
2021/01/03 10:34:27;;;;;;;18.63;11.65;;;1.90;99.90;;;;;;5007507;28;20414;-70
2021/01/03 10:36:58;;;;;;;17.05;11.45;;;1.70;99.90;;;;;;5006334;28;20073;-70
2021/01/03 10:39:25;;;;;;;16.92;10.82;;;1.70;99.90;;;;;;4999001;28;20050;-70
2021/01/03 10:41:52;;;;;;;20.02;12.38;;;1.70;99.90;;;;;;5009615;28;20200;-70
2021/01/03 10:44:19;;;;;;;19.70;12.65;;;1.60;99.90;;;;;;5010025;28;20565;-70
2021/01/03 10:46:49;;;;;;;21.55;11.77;;;1.40;99.90;;;;;;5007437;28;20096;-70
2021/01/03 10:49:15;;;;;;;18.83;10.45;;;1.40;99.90;;;;;;5010174;28;20104;-71
2021/01/03 10:51:44;;;;;;;18.88;11.60;;;1.60;99.90;;;;;;5008263;28;20061;-70
2021/01/03 10:54:14;;;;;;;24.95;13.38;;;1.60;99.90;;;;;;5004381;28;20045;-70
2021/01/03 10:56:45;;;;;;;21.27;12.55;;;1.60;99.90;;;;;;5010415;28;20069;-70
2021/01/03 10:59:12;;;;;;;17.50;10.77;;;1.50;99.90;;;;;;5010022;28;20128;-70
2021/01/03 11:01:39;;;;;;;18.20;11.40;;;1.70;99.90;;;;;;5004468;28;20074;-70
2021/01/03 11:04:06;;;;;;;19.08;11.43;;;1.80;99.90;;;;;;5009317;28;20467;-70
2021/01/03 11:06:44;;;;;;;19.02;12.10;;;1.70;99.90;;;;;;5008572;28;20097;-70
2021/01/03 11:09:18;;;;;;;20.40;12.73;;;1.70;99.90;;;;;;5006894;28;20522;-70
2021/01/03 11:11:45;;;;;;;18.25;11.60;;;1.60;99.90;;;;;;5007259;28;20380;-70
2021/01/03 11:14:12;;;;;;;19.70;11.20;;;1.70;99.90;;;;;;5009210;28;20074;-71
2021/01/03 11:16:41;;;;;;;15.23;10.43;;;1.80;99.90;;;;;;5006993;28;20053;-71
2021/01/03 11:19:11;;;;;;;21.85;13.07;;;1.80;99.90;;;;;;5008209;28;20575;-70
2021/01/03 11:21:37;;;;;;;20.40;10.90;;;1.80;99.90;;;;;;5003893;28;20062;-71
2021/01/03 11:24:09;;;;;;;16.13;10.15;;;1.80;99.90;;;;;;4992677;28;20073;-70
2021/01/03 11:26:38;;;;;;;16.98;10.43;;;1.80;99.90;;;;;;5002388;28;20058;-70
2021/01/03 11:29:07;;;;;;;19.42;11.95;;;1.80;99.90;;;;;;5007215;28;20125;-70
2021/01/03 11:31:38;;;;;;;20.88;11.90;;;1.80;99.90;;;;;;5008844;28;20053;-70
2021/01/03 11:34:07;;;;;;;18.55;11.30;;;1.70;99.90;;;;;;5006136;28;20073;-71
2021/01/03 11:36:34;;;;;;;40.67;22.65;;;1.70;99.90;;;;;;5008268;28;20085;-70
2021/01/03 11:39:02;;;;;;;22.10;13.52;;;1.70;99.90;;;;;;5008245;28;20050;-70
2021/01/03 11:41:29;;;;;;;18.85;12.20;;;1.70;99.90;;;;;;5008456;28;20538;-70
2021/01/03 11:43:55;;;;;;;17.88;11.20;;;1.60;99.90;;;;;;5006777;28;20135;-70
2021/01/03 11:46:23;;;;;;;21.65;12.30;;;1.60;99.90;;;;;;5005079;28;20104;-70
2021/01/03 11:48:49;;;;;;;16.35;10.50;;;1.60;99.90;;;;;;4971835;28;20046;-70
2021/01/03 11:51:16;;;;;;;19.25;11.30;;;1.60;99.90;;;;;;5008154;28;20046;-71
2021/01/03 11:53:43;;;;;;;17.33;11.77;;;1.60;99.90;;;;;;5006558;28;20112;-70
2021/01/03 11:56:09;;;;;;;17.35;11.00;;;1.60;99.90;;;;;;5007033;28;20153;-70
2021/01/03 11:58:36;;;;;;;15.55;9.90;;;1.60;99.90;;;;;;5001258;28;20088;-70
2021/01/03 12:01:04;;;;;;;14.57;9.48;;;1.70;99.90;;;;;;5009305;28;20057;-70
2021/01/03 12:03:30;;;;;;;19.08;11.95;;;1.70;99.90;;;;;;5008567;28;20104;-70
2021/01/03 12:05:56;;;;;;;19.85;12.48;;;1.70;99.90;;;;;;5007781;28;20092;-70
2021/01/03 12:08:23;;;;;;;18.25;10.95;;;1.70;99.90;;;;;;5007704;28;20088;-70
2021/01/03 12:10:49;;;;;;;17.45;10.80;;;1.70;99.90;;;;;;5001995;28;20133;-70
2021/01/03 12:13:16;;;;;;;18.48;11.55;;;1.70;99.90;;;;;;5007339;28;20042;-70
2021/01/03 12:15:45;;;;;;;16.70;9.68;;;1.70;99.90;;;;;;5007982;28;20511;-70
2021/01/03 12:18:11;;;;;;;16.20;10.35;;;1.70;99.90;;;;;;5006674;28;20049;-70
2021/01/03 12:20:41;;;;;;;19.55;11.93;;;1.60;99.90;;;;;;5000524;28;20221;-71
2021/01/03 12:23:07;;;;;;;18.88;10.95;;;1.60;99.90;;;;;;4999056;28;20100;-70
2021/01/03 12:25:34;;;;;;;22.52;11.52;;;1.60;99.90;;;;;;5007776;28;20046;-70
2021/01/03 12:28:01;;;;;;;18.45;11.02;;;1.60;99.90;;;;;;5007521;28;20056;-71
2021/01/03 12:30:27;;;;;;;19.58;11.70;;;1.60;99.90;;;;;;5007811;28;20125;-71
2021/01/03 12:32:54;;;;;;;18.20;11.80;;;1.60;99.90;;;;;;5007342;28;20372;-70
2021/01/03 12:35:20;;;;;;;19.67;11.07;;;1.60;99.90;;;;;;4990573;28;20487;-70
2021/01/03 12:37:47;;;;;;;17.15;11.05;;;1.50;99.90;;;;;;4990549;28;20050;-71
2021/01/03 12:40:14;;;;;;;17.63;11.15;;;1.60;99.90;;;;;;4989364;28;20050;-70
2021/01/03 12:42:41;;;;;;;24.98;14.23;;;1.50;99.90;;;;;;5011061;28;20170;-70
2021/01/03 12:45:10;;;;;;;26.67;13.77;;;1.40;99.90;;;;;;5010968;28;20125;-70
2021/01/03 12:47:37;;;;;;;21.42;12.20;;;1.40;99.90;;;;;;4993348;28;20144;-71
2021/01/03 12:50:06;;;;;;;21.27;10.80;;;1.50;99.90;;;;;;5003906;28;20124;-71
2021/01/03 12:52:32;;;;;;;17.67;11.25;;;1.50;99.90;;;;;;5010901;28;20100;-70
2021/01/03 12:54:59;;;;;;;20.67;12.38;;;1.50;99.90;;;;;;5009563;28;20049;-70
2021/01/03 12:57:26;;;;;;;18.38;11.52;;;1.40;99.90;;;;;;5010816;28;20058;-70
2021/01/03 12:59:52;;;;;;;17.08;10.30;;;1.50;99.90;;;;;;4992885;28;20086;-70
2021/01/03 13:02:19;;;;;;;19.90;11.43;;;1.60;99.90;;;;;;5026197;28;20231;-70
2021/01/03 13:04:56;;;;;;;20.70;11.40;;;1.60;99.90;;;;;;5008633;28;20563;-70
2021/01/03 13:07:22;;;;;;;23.90;12.30;;;1.60;99.90;;;;;;5009832;28;20073;-70
2021/01/03 13:09:50;;;;;;;18.42;11.52;;;1.60;99.90;;;;;;5004174;28;20061;-70